Time;durP1;ratioP1;P1;durP2;ratioP2;P2;SDS_P1;SDS_P2;PMS_P1;PMS_P2;Temp;Humidity;BMP_temperature;BMP_pressure;BME280_temperature;BME280_humidity;BME280_pressure;Samples;Min_cycle;Max_cycle;Signal;HPM_P1;HPM_P2
2021/10/15 00:00:41;;;;;;;13.25;10.57;;;13.10;99.90;;;;;;5072139;28;20469;-76
2021/10/15 00:03:07;;;;;;;12.63;9.52;;;13.10;99.90;;;;;;5072807;28;20488;-75
2021/10/15 00:05:33;;;;;;;12.30;10.15;;;13.10;99.90;;;;;;5072930;28;20123;-77
2021/10/15 00:07:58;;;;;;;16.63;9.48;;;13.10;99.90;;;;;;5072035;28;20405;-76
2021/10/15 00:10:24;;;;;;;10.77;9.65;;;13.10;99.90;;;;;;5072576;28;20541;-74
2021/10/15 00:12:50;;;;;;;18.20;9.93;;;13.10;99.90;;;;;;5072998;28;20543;-76
2021/10/15 00:15:16;;;;;;;12.77;9.80;;;13.10;99.90;;;;;;5071839;28;20376;-76
2021/10/15 00:17:42;;;;;;;12.13;9.25;;;13.10;99.90;;;;;;5072253;28;20052;-77
2021/10/15 00:20:08;;;;;;;15.43;9.65;;;13.10;99.90;;;;;;5072265;28;20413;-76
2021/10/15 00:22:34;;;;;;;14.00;9.93;;;13.10;99.90;;;;;;5072120;28;20027;-77
2021/10/15 00:25:00;;;;;;;10.13;8.48;;;13.20;99.90;;;;;;5072313;28;20036;-75
2021/10/15 00:27:25;;;;;;;10.38;9.25;;;13.10;99.90;;;;;;5072118;28;20017;-77
2021/10/15 00:29:51;;;;;;;15.68;9.98;;;13.20;99.90;;;;;;5071389;28;20760;-77
2021/10/15 00:32:18;;;;;;;16.77;9.93;;;13.20;99.90;;;;;;5072358;28;20480;-76
2021/10/15 00:34:43;;;;;;;20.10;9.70;;;13.20;99.90;;;;;;5072234;28;20024;-76
2021/10/15 00:37:09;;;;;;;13.27;10.15;;;13.20;99.90;;;;;;5071376;28;20027;-75
2021/10/15 00:39:35;;;;;;;16.52;10.45;;;13.20;99.90;;;;;;5072624;28;20531;-74
2021/10/15 00:42:02;;;;;;;19.27;10.63;;;13.20;99.90;;;;;;5071870;28;20139;-76
2021/10/15 00:44:27;;;;;;;15.32;10.32;;;13.10;99.90;;;;;;5071346;28;20040;-77
2021/10/15 00:46:53;;;;;;;12.43;9.13;;;13.10;99.90;;;;;;5072252;28;20024;-76
2021/10/15 00:49:19;;;;;;;15.23;10.48;;;13.10;99.90;;;;;;5072069;28;20035;-75
2021/10/15 00:51:46;;;;;;;14.00;10.20;;;13.10;99.90;;;;;;5071093;28;20017;-76
2021/10/15 00:54:16;;;;;;;16.42;9.75;;;13.10;99.90;;;;;;5072289;28;20020;-76
2021/10/15 00:56:43;;;;;;;13.85;9.57;;;13.10;99.90;;;;;;5071850;28;20055;-76
2021/10/15 00:59:12;;;;;;;12.88;9.90;;;13.10;99.90;;;;;;5071250;28;20028;-75
2021/10/15 01:01:38;;;;;;;14.43;10.18;;;13.10;99.90;;;;;;5071810;28;20029;-76
2021/10/15 01:04:04;;;;;;;15.00;10.82;;;13.10;99.90;;;;;;5071379;28;20012;-76
2021/10/15 01:06:32;;;;;;;12.05;9.63;;;13.10;99.90;;;;;;5071552;28;20036;-77
2021/10/15 01:08:58;;;;;;;17.38;10.43;;;13.10;99.90;;;;;;5071667;28;20028;-78
2021/10/15 01:11:24;;;;;;;16.65;10.43;;;13.30;99.90;;;;;;5071847;28;20175;-76
2021/10/15 01:13:50;;;;;;;13.10;10.27;;;13.10;99.90;;;;;;5057978;28;20016;-74
2021/10/15 01:16:16;;;;;;;13.75;10.32;;;13.10;99.90;;;;;;5072126;28;20242;-76
2021/10/15 01:18:45;;;;;;;19.42;9.88;;;13.10;99.90;;;;;;5070643;28;20024;-75
2021/10/15 01:21:12;;;;;;;13.35;10.15;;;13.10;99.90;;;;;;5071857;28;20373;-76
2021/10/15 01:23:38;;;;;;;14.80;9.98;;;13.10;99.90;;;;;;5071518;28;20461;-77
2021/10/15 01:26:05;;;;;;;14.65;10.68;;;13.10;99.90;;;;;;5070606;28;20036;-77
2021/10/15 01:28:32;;;;;;;12.23;10.30;;;13.10;99.90;;;;;;5071871;28;20029;-76
2021/10/15 01:30:58;;;;;;;17.73;10.48;;;13.20;99.90;;;;;;5057841;28;20447;-77
2021/10/15 01:33:24;;;;;;;17.02;9.88;;;13.10;99.90;;;;;;5071377;28;20067;-74
2021/10/15 01:35:50;;;;;;;15.07;10.23;;;13.10;99.90;;;;;;5071638;28;20053;-75
2021/10/15 01:38:17;;;;;;;17.17;10.70;;;13.10;99.90;;;;;;5071597;28;20503;-77
2021/10/15 01:40:43;;;;;;;17.38;10.45;;;13.00;99.90;;;;;;5070864;28;20021;-78
2021/10/15 01:43:11;;;;;;;22.77;10.18;;;13.10;99.90;;;;;;5071944;28;20081;-78
2021/10/15 01:45:36;;;;;;;11.13;9.68;;;13.10;99.90;;;;;;5071648;28;20044;-77
2021/10/15 01:48:02;;;;;;;14.45;9.95;;;13.10;99.90;;;;;;5058748;28;20025;-76
2021/10/15 01:50:29;;;;;;;14.45;9.55;;;13.10;99.90;;;;;;5080088;28;20047;-76
2021/10/15 01:52:55;;;;;;;16.55;10.48;;;13.10;99.90;;;;;;5074373;28;20021;-76
2021/10/15 01:55:22;;;;;;;17.58;9.93;;;13.10;99.90;;;;;;5074088;28;20029;-77
2021/10/15 01:57:48;;;;;;;18.23;10.68;;;13.00;99.90;;;;;;5074440;28;20017;-77
2021/10/15 02:00:18;;;;;;;22.65;10.77;;;13.10;99.90;;;;;;5074231;28;20029;-76
2021/10/15 02:02:44;;;;;;;15.02;10.85;;;13.10;99.90;;;;;;5074438;28;20066;-75
2021/10/15 02:05:13;;;;;;;17.83;10.23;;;13.10;99.90;;;;;;5074930;28;20036;-77
2021/10/15 02:07:40;;;;;;;18.83;10.95;;;13.10;99.90;;;;;;5073961;28;20020;-77
2021/10/15 02:10:07;;;;;;;19.38;10.20;;;13.10;99.90;;;;;;5074612;28;20029;-76
2021/10/15 02:12:32;;;;;;;12.65;9.45;;;13.10;99.90;;;;;;5074614;28;20029;-77
2021/10/15 02:15:01;;;;;;;11.35;9.75;;;13.10;99.90;;;;;;5078640;28;20581;-76
2021/10/15 02:17:26;;;;;;;14.13;9.98;;;13.10;99.90;;;;;;5074487;28;20070;-75
2021/10/15 02:19:52;;;;;;;15.48;10.48;;;13.10;99.90;;;;;;5074515;28;20021;-76
2021/10/15 02:22:17;;;;;;;11.98;9.88;;;13.10;99.90;;;;;;5073558;28;20047;-77
2021/10/15 02:24:43;;;;;;;15.77;10.40;;;13.10;99.90;;;;;;5074816;28;20024;-78
2021/10/15 02:27:08;;;;;;;15.43;9.98;;;13.10;99.90;;;;;;5075053;28;20032;-78
2021/10/15 02:29:34;;;;;;;18.23;10.55;;;13.10;99.90;;;;;;5073198;28;20032;-77
2021/10/15 02:32:00;;;;;;;14.75;10.02;;;13.20;99.90;;;;;;5068767;28;20016;-77
2021/10/15 02:34:26;;;;;;;13.13;9.48;;;13.10;99.90;;;;;;5074705;28;20032;-75
2021/10/15 02:36:51;;;;;;;16.88;10.45;;;13.20;99.90;;;;;;5073187;28;20098;-74
2021/10/15 02:39:17;;;;;;;17.48;10.88;;;13.10;99.90;;;;;;5074209;28;20016;-76
2021/10/15 02:41:43;;;;;;;16.83;9.77;;;13.20;99.90;;;;;;5073384;28;20025;-76
2021/10/15 02:44:10;;;;;;;14.00;9.40;;;13.20;99.90;;;;;;5093108;28;20430;-77
2021/10/15 02:46:37;;;;;;;15.13;9.70;;;13.20;99.90;;;;;;5088448;28;20070;-76
2021/10/15 02:49:03;;;;;;;15.93;9.68;;;13.20;99.90;;;;;;5073748;28;20138;-77
2021/10/15 02:51:29;;;;;;;20.15;9.23;;;13.20;99.90;;;;;;5080390;28;20112;-76
2021/10/15 02:53:54;;;;;;;12.15;9.13;;;13.20;99.90;;;;;;5091048;28;20044;-77
2021/10/15 02:56:20;;;;;;;20.02;9.45;;;13.30;99.90;;;;;;5075860;28;20048;-77
2021/10/15 02:58:46;;;;;;;18.75;9.95;;;13.30;99.90;;;;;;5081201;28;20025;-76
2021/10/15 03:01:11;;;;;;;16.95;9.98;;;13.30;99.90;;;;;;5080543;28;20020;-76
2021/10/15 03:03:37;;;;;;;19.65;10.23;;;13.30;99.90;;;;;;5093238;28;20051;-77
2021/10/15 03:06:03;;;;;;;12.63;9.48;;;13.30;99.90;;;;;;5093473;28;20063;-75
2021/10/15 03:08:28;;;;;;;14.27;9.68;;;13.40;99.90;;;;;;5093873;28;20024;-76
2021/10/15 03:10:54;;;;;;;19.65;10.23;;;13.40;99.90;;;;;;5092243;28;20538;-76
2021/10/15 03:13:20;;;;;;;21.67;10.40;;;13.30;99.90;;;;;;5093894;28;20051;-77
2021/10/15 03:15:45;;;;;;;19.85;11.27;;;13.40;99.90;;;;;;5093090;28;20028;-76
2021/10/15 03:18:11;;;;;;;15.77;10.07;;;13.40;99.90;;;;;;5079137;28;20044;-76
2021/10/15 03:20:37;;;;;;;17.25;9.82;;;13.40;99.90;;;;;;5093431;28;20032;-76
2021/10/15 03:23:03;;;;;;;14.60;10.00;;;13.30;99.90;;;;;;5093255;28;20020;-76
2021/10/15 03:25:29;;;;;;;14.50;9.60;;;13.40;99.90;;;;;;5072255;28;20033;-77
2021/10/15 03:27:54;;;;;;;16.95;9.68;;;13.30;99.90;;;;;;5085276;28;20097;-77
2021/10/15 03:30:20;;;;;;;17.77;10.27;;;13.40;99.90;;;;;;5093586;28;20028;-75
2021/10/15 03:32:46;;;;;;;12.43;9.20;;;13.40;99.90;;;;;;5092470;28;20024;-76
2021/10/15 03:35:11;;;;;;;16.42;9.45;;;13.40;99.90;;;;;;5093404;28;20048;-76
2021/10/15 03:37:37;;;;;;;16.17;9.77;;;13.40;99.90;;;;;;5093345;28;20415;-77
2021/10/15 03:40:04;;;;;;;29.25;10.55;;;13.40;99.90;;;;;;5063887;28;20024;-75
2021/10/15 03:42:29;;;;;;;15.63;10.00;;;13.30;99.90;;;;;;5093179;28;20077;-77
2021/10/15 03:44:55;;;;;;;13.43;9.63;;;13.30;99.90;;;;;;5092733;28;20035;-75
2021/10/15 03:47:20;;;;;;;16.67;10.20;;;13.30;99.90;;;;;;5092820;28;20016;-77
2021/10/15 03:49:46;;;;;;;20.70;11.35;;;13.30;99.90;;;;;;5092831;28;20020;-75
2021/10/15 03:52:11;;;;;;;19.58;10.50;;;13.30;99.90;;;;;;5078935;28;20016;-75
2021/10/15 03:54:37;;;;;;;17.75;11.32;;;13.30;99.90;;;;;;5092658;28;20443;-76
2021/10/15 03:57:03;;;;;;;25.10;11.55;;;13.30;99.90;;;;;;5092961;28;20019;-76
2021/10/15 03:59:29;;;;;;;26.48;12.18;;;13.30;99.90;;;;;;5092978;28;20034;-76
2021/10/15 04:01:54;;;;;;;17.45;11.55;;;13.30;99.90;;;;;;5093397;28;20024;-77
2021/10/15 04:04:20;;;;;;;22.10;11.15;;;13.30;99.90;;;;;;5095995;28;20392;-77
2021/10/15 04:06:45;;;;;;;15.63;11.48;;;13.30;99.90;;;;;;5095431;28;20502;-76
2021/10/15 04:09:11;;;;;;;21.65;11.80;;;13.20;99.90;;;;;;5075615;28;20031;-75
2021/10/15 04:11:36;;;;;;;23.45;12.23;;;13.30;99.90;;;;;;5093038;28;20034;-77
2021/10/15 04:14:02;;;;;;;18.83;11.40;;;13.30;99.90;;;;;;5091843;28;20066;-76
2021/10/15 04:16:28;;;;;;;19.67;11.73;;;13.30;99.90;;;;;;5092975;28;20099;-76
2021/10/15 04:18:53;;;;;;;23.33;12.40;;;13.30;99.90;;;;;;5092864;28;20066;-76
2021/10/15 04:21:19;;;;;;;16.35;11.98;;;13.30;99.90;;;;;;5091926;28;20344;-75
2021/10/15 04:23:45;;;;;;;16.20;11.23;;;13.30;99.90;;;;;;5092361;28;20089;-76
2021/10/15 04:26:10;;;;;;;20.77;11.55;;;13.30;99.90;;;;;;5092204;28;20040;-77
2021/10/15 04:28:36;;;;;;;20.92;11.85;;;13.30;99.90;;;;;;5091974;28;20476;-76
2021/10/15 04:31:02;;;;;;;20.88;11.63;;;13.30;99.90;;;;;;5092350;28;20078;-76
2021/10/15 04:33:27;;;;;;;16.92;11.52;;;13.30;99.90;;;;;;5092579;28;20024;-76
2021/10/15 04:35:53;;;;;;;18.52;11.65;;;13.30;99.90;;;;;;5091196;28;20135;-77
2021/10/15 04:38:18;;;;;;;19.83;11.68;;;13.30;99.90;;;;;;5092863;28;20028;-77
2021/10/15 04:40:44;;;;;;;23.25;10.65;;;13.30;99.90;;;;;;5092604;28;20016;-75
2021/10/15 04:43:10;;;;;;;15.98;11.32;;;13.30;99.90;;;;;;5091526;28;20535;-77
2021/10/15 04:45:35;;;;;;;17.83;11.30;;;13.30;99.90;;;;;;5092161;28;20036;-77
2021/10/15 04:48:02;;;;;;;23.52;11.32;;;13.30;99.90;;;;;;5091762;28;20024;-77
2021/10/15 04:50:28;;;;;;;24.00;11.02;;;13.30;99.90;;;;;;5086512;28;20499;-76
2021/10/15 04:52:54;;;;;;;19.90;10.52;;;13.30;99.90;;;;;;5083719;28;20028;-76
2021/10/15 04:55:19;;;;;;;11.52;9.93;;;13.30;99.90;;;;;;5092414;28;20027;-76
2021/10/15 04:57:45;;;;;;;15.70;10.48;;;13.30;99.90;;;;;;5091512;28;20070;-76
2021/10/15 05:00:12;;;;;;;16.92;10.80;;;13.40;99.90;;;;;;5092422;28;20476;-76
2021/10/15 05:02:39;;;;;;;17.17;10.35;;;13.30;99.90;;;;;;5092514;28;20023;-75
2021/10/15 05:05:04;;;;;;;23.02;10.18;;;13.40;99.90;;;;;;5091371;28;20036;-77
2021/10/15 05:07:30;;;;;;;22.55;11.60;;;13.40;99.90;;;;;;5063519;28;20039;-76
2021/10/15 05:09:56;;;;;;;16.58;10.32;;;13.40;99.90;;;;;;5091696;28;20126;-75
2021/10/15 05:12:22;;;;;;;22.13;10.90;;;13.40;99.90;;;;;;5091878;28;20069;-75
2021/10/15 05:14:47;;;;;;;19.08;9.80;;;13.30;99.90;;;;;;5092135;28;20051;-75
2021/10/15 05:17:13;;;;;;;14.10;9.63;;;13.40;99.90;;;;;;5062900;28;20103;-75
2021/10/15 05:19:40;;;;;;;16.52;10.45;;;13.30;99.90;;;;;;5091806;28;20460;-77
2021/10/15 05:22:05;;;;;;;21.92;10.00;;;13.30;99.90;;;;;;5091893;28;20036;-75
2021/10/15 05:24:31;;;;;;;21.73;10.30;;;13.30;99.90;;;;;;5094762;28;20034;-76
2021/10/15 05:26:57;;;;;;;22.52;9.75;;;13.30;99.90;;;;;;5095605;28;20066;-76
2021/10/15 05:29:23;;;;;;;14.95;9.07;;;13.30;99.90;;;;;;5095948;28;20013;-76
2021/10/15 05:31:48;;;;;;;17.10;8.98;;;13.30;99.90;;;;;;5095118;28;20028;-76
2021/10/15 05:34:14;;;;;;;13.05;7.18;;;13.30;99.90;;;;;;5095664;28;20028;-75
2021/10/15 05:36:39;;;;;;;13.50;6.63;;;13.40;99.90;;;;;;5095783;28;20396;-75
2021/10/15 05:39:05;;;;;;;16.00;5.88;;;13.50;99.90;;;;;;5095445;28;20024;-77
2021/10/15 05:41:32;;;;;;;12.80;4.80;;;13.50;99.90;;;;;;5095617;28;20065;-77
2021/10/15 05:43:58;;;;;;;18.65;4.10;;;13.50;99.90;;;;;;5098246;28;20024;-76
2021/10/15 05:46:23;;;;;;;15.95;4.60;;;13.60;99.90;;;;;;5095027;28;20111;-76
2021/10/15 05:48:49;;;;;;;11.23;3.97;;;13.60;99.90;;;;;;5095549;28;20065;-77
2021/10/15 05:51:14;;;;;;;12.15;3.85;;;13.60;99.90;;;;;;5084744;28;20032;-77
2021/10/15 05:53:40;;;;;;;10.80;4.50;;;13.70;99.90;;;;;;5091693;28;20012;-76
2021/10/15 05:56:35;;;;;;;9.98;5.03;;;13.70;99.90;;;;;;5095244;28;20248;-77
2021/10/15 05:59:04;;;;;;;12.80;4.10;;;13.80;99.90;;;;;;5095357;28;20073;-76
2021/10/15 06:01:30;;;;;;;11.05;4.20;;;13.80;99.90;;;;;;5094436;28;20024;-77
2021/10/15 06:04:33;;;;;;;14.50;4.32;;;13.90;99.90;;;;;;5089339;28;20392;-76
2021/10/15 06:14:47;;;;;;;4.95;2.60;;;13.90;99.90;;;;;;5086077;28;20035;-78
2021/10/15 06:17:17;;;;;;;7.80;2.50;;;13.80;99.90;;;;;;5039029;28;20025;-78
2021/10/15 06:19:45;;;;;;;6.07;2.30;;;13.70;99.90;;;;;;5086557;28;20557;-78
2021/10/15 06:22:11;;;;;;;7.85;2.50;;;13.60;99.90;;;;;;5090039;28;20073;-78
2021/10/15 06:24:37;;;;;;;5.80;2.67;;;13.50;99.90;;;;;;5088765;28;20044;-79
2021/10/15 06:27:03;;;;;;;8.95;2.85;;;13.50;99.90;;;;;;5092041;28;20107;-77
2021/10/15 06:29:29;;;;;;;3.92;2.75;;;13.40;99.90;;;;;;5090220;28;20052;-78
2021/10/15 06:31:55;;;;;;;7.40;3.60;;;13.40;99.90;;;;;;5093625;28;20069;-77
2021/10/15 06:34:20;;;;;;;8.30;2.83;;;13.40;99.90;;;;;;5078194;28;20472;-78
2021/10/15 06:36:46;;;;;;;7.30;1.83;;;13.30;99.90;;;;;;5073847;28;20535;-77
2021/10/15 06:39:11;;;;;;;1.33;0.70;;;13.20;99.90;;;;;;5074667;28;20465;-77
2021/10/15 06:41:37;;;;;;;1.77;0.70;;;13.10;99.90;;;;;;5077676;28;20111;-78
2021/10/15 06:44:03;;;;;;;2.35;0.70;;;12.90;99.90;;;;;;5086233;28;20028;-79
2021/10/15 06:46:29;;;;;;;1.42;0.60;;;12.70;99.90;;;;;;5086664;28;20083;-76
2021/10/15 06:48:54;;;;;;;0.85;0.43;;;12.60;99.90;;;;;;5083319;28;20025;-77
2021/10/15 06:51:20;;;;;;;1.13;0.50;;;12.50;99.90;;;;;;5087390;28;20110;-77
2021/10/15 06:53:45;;;;;;;1.33;0.50;;;12.40;99.90;;;;;;5094361;28;20020;-79
2021/10/15 06:56:11;;;;;;;1.08;0.45;;;12.30;99.90;;;;;;5093612;28;20043;-79
2021/10/15 06:58:37;;;;;;;1.58;0.80;;;12.20;99.90;;;;;;5094297;28;20027;-80
2021/10/15 07:01:03;;;;;;;0.98;0.60;;;12.10;99.90;;;;;;5094263;28;20020;-78
2021/10/15 07:03:29;;;;;;;2.65;1.00;;;12.10;99.90;;;;;;5064963;28;20044;-78
2021/10/15 07:05:57;;;;;;;1.95;1.00;;;12.00;99.90;;;;;;5094169;28;20468;-79
2021/10/15 07:08:24;;;;;;;8.85;1.20;;;11.90;99.90;;;;;;5092601;28;20030;-79
2021/10/15 07:10:49;;;;;;;2.85;1.33;;;11.90;99.90;;;;;;5085742;28;20400;-80
2021/10/15 07:13:15;;;;;;;3.45;1.33;;;11.90;99.90;;;;;;5074458;28;20026;-82
2021/10/15 07:15:43;;;;;;;1.63;1.30;;;11.80;99.90;;;;;;5074064;28;20024;-80
2021/10/15 07:18:08;;;;;;;1.60;1.38;;;11.80;99.90;;;;;;5074023;28;20081;-80
2021/10/15 07:20:35;;;;;;;1.52;1.10;;;11.70;99.90;;;;;;5074812;28;20024;-80
2021/10/15 07:23:01;;;;;;;4.25;1.30;;;11.70;99.90;;;;;;5071324;28;20025;-80
2021/10/15 07:25:27;;;;;;;2.67;1.33;;;11.60;99.90;;;;;;5075545;28;20047;-80
2021/10/15 07:27:53;;;;;;;2.85;1.67;;;11.60;99.90;;;;;;5073115;28;20473;-78
2021/10/15 07:30:19;;;;;;;6.43;1.23;;;11.50;99.90;;;;;;5072130;28;20028;-79
2021/10/15 07:32:45;;;;;;;3.90;1.20;;;11.60;99.90;;;;;;5069637;28;20021;-86
2021/10/15 07:35:12;;;;;;;4.38;1.30;;;11.50;99.90;;;;;;5079723;28;20043;-80
2021/10/15 07:37:37;;;;;;;5.20;1.30;;;11.50;99.90;;;;;;5084819;28;20027;-80
2021/10/15 07:40:06;;;;;;;4.68;1.50;;;11.40;99.90;;;;;;5085229;28;20016;-81
2021/10/15 07:42:33;;;;;;;8.85;1.80;;;11.50;99.90;;;;;;5079209;28;20012;-80
2021/10/15 07:44:59;;;;;;;2.83;1.42;;;11.40;99.90;;;;;;5071004;28;20025;-80
2021/10/15 07:47:24;;;;;;;5.07;1.30;;;11.40;99.90;;;;;;5073588;28;20031;-78
2021/10/15 07:49:50;;;;;;;3.95;1.45;;;11.50;99.90;;;;;;5074000;28;20111;-79
2021/10/15 07:52:15;;;;;;;5.85;1.70;;;11.50;99.90;;;;;;5078624;28;20020;-80
2021/10/15 07:54:41;;;;;;;4.47;1.50;;;11.60;99.90;;;;;;5093734;28;20039;-75
2021/10/15 07:57:07;;;;;;;6.82;1.10;;;11.60;99.90;;;;;;5094035;28;20024;-83
2021/10/15 07:59:33;;;;;;;8.60;1.52;;;11.60;99.90;;;;;;5094377;28;20388;-76
2021/10/15 08:01:58;;;;;;;6.15;1.45;;;11.70;99.90;;;;;;5093530;28;20111;-78
2021/10/15 08:04:24;;;;;;;4.35;1.40;;;11.70;99.90;;;;;;5094083;28;20484;-77
2021/10/15 08:06:52;;;;;;;9.68;1.63;;;11.70;99.90;;;;;;5093252;28;20063;-78
2021/10/15 08:09:19;;;;;;;8.18;1.65;;;11.80;99.90;;;;;;5093878;28;20058;-72
2021/10/15 08:11:44;;;;;;;13.20;1.65;;;11.80;99.90;;;;;;5093341;28;20068;-78
2021/10/15 08:14:10;;;;;;;10.80;1.77;;;11.80;99.90;;;;;;5093100;28;20024;-78
2021/10/15 08:16:35;;;;;;;15.05;1.33;;;11.90;99.90;;;;;;5082675;28;20029;-77
2021/10/15 08:19:01;;;;;;;10.82;1.65;;;11.90;99.90;;;;;;5072772;28;20079;-77
2021/10/15 08:21:26;;;;;;;9.68;1.85;;;12.00;99.90;;;;;;5082052;28;20093;-76
2021/10/15 08:23:52;;;;;;;17.92;4.00;;;12.00;99.90;;;;;;5088032;28;20486;-77
2021/10/15 08:26:17;;;;;;;11.45;2.25;;;12.00;99.90;;;;;;5084040;28;20480;-77
2021/10/15 08:28:44;;;;;;;7.28;1.17;;;12.00;99.90;;;;;;5080560;28;20016;-78
2021/10/15 08:31:11;;;;;;;10.88;1.35;;;12.00;99.90;;;;;;5082770;28;20495;-76
2021/10/15 08:33:37;;;;;;;7.70;1.20;;;12.00;99.90;;;;;;5086254;28;20498;-77
2021/10/15 08:36:02;;;;;;;4.47;1.42;;;12.00;99.90;;;;;;5083083;28;20084;-77
2021/10/15 08:38:28;;;;;;;9.70;1.20;;;12.00;99.90;;;;;;5084847;28;20106;-77
2021/10/15 08:40:54;;;;;;;9.48;1.55;;;12.00;99.90;;;;;;5080506;28;20070;-77
2021/10/15 08:43:19;;;;;;;11.85;1.20;;;11.90;99.90;;;;;;5077648;28;20440;-77
2021/10/15 08:45:45;;;;;;;12.32;1.65;;;11.90;99.90;;;;;;5089006;28;20024;-76
2021/10/15 08:48:10;;;;;;;9.57;1.77;;;11.90;99.90;;;;;;5079319;28;20021;-77
2021/10/15 08:50:36;;;;;;;6.28;1.25;;;11.90;99.90;;;;;;5088197;28;20497;-77
2021/10/15 08:53:03;;;;;;;8.50;1.30;;;11.90;99.90;;;;;;5084990;28;20106;-78
2021/10/15 08:55:29;;;;;;;14.55;1.50;;;11.90;99.90;;;;;;5085056;28;20036;-77
2021/10/15 08:57:59;;;;;;;6.90;1.38;;;12.00;99.90;;;;;;5076731;28;20043;-78
2021/10/15 09:00:27;;;;;;;8.33;1.17;;;12.00;99.90;;;;;;5076426;28;20032;-77
2021/10/15 09:03:31;;;;;;;12.55;1.55;;;12.20;99.90;;;;;;5083716;28;20028;-77
2021/10/15 09:06:03;;;;;;;8.35;1.20;;;12.20;99.90;;;;;;4994968;28;20507;-77
2021/10/15 09:08:48;;;;;;;6.25;1.38;;;12.20;99.90;;;;;;4995364;28;20544;-76
2021/10/15 09:11:34;;;;;;;4.68;0.90;;;12.20;99.90;;;;;;5049744;28;20522;-78
2021/10/15 09:14:22;;;;;;;14.15;2.20;;;12.20;99.90;;;;;;5089675;28;20476;-76
2021/10/15 09:16:55;;;;;;;12.23;1.73;;;12.20;99.90;;;;;;5075636;28;20033;-77
2021/10/15 09:19:31;;;;;;;4.25;1.63;;;12.20;99.90;;;;;;5078113;28;20036;-76
2021/10/15 09:22:10;;;;;;;8.25;1.70;;;12.20;99.90;;;;;;5081894;28;20116;-77
2021/10/15 09:24:40;;;;;;;6.32;1.30;;;12.20;99.90;;;;;;5075206;28;20027;-76
2021/10/15 09:27:17;;;;;;;11.48;1.73;;;12.20;99.90;;;;;;5072876;28;20036;-78
2021/10/15 09:29:55;;;;;;;7.55;3.03;;;12.30;99.90;;;;;;5076760;28;20368;-77
2021/10/15 09:32:24;;;;;;;5.47;1.27;;;12.40;99.90;;;;;;5070621;28;20032;-76
2021/10/15 09:34:50;;;;;;;10.80;2.65;;;12.40;99.90;;;;;;5073892;28;20021;-76
2021/10/15 09:37:21;;;;;;;16.45;2.03;;;12.40;99.90;;;;;;5080593;28;20093;-77
2021/10/15 09:39:47;;;;;;;9.70;2.78;;;12.40;99.90;;;;;;5073439;28;20025;-76
2021/10/15 09:42:23;;;;;;;5.88;1.25;;;12.40;99.90;;;;;;5074383;28;20024;-76
2021/10/15 09:44:48;;;;;;;12.27;1.75;;;12.50;99.90;;;;;;5072734;28;20039;-77
2021/10/15 09:47:17;;;;;;;12.32;1.40;;;12.50;99.90;;;;;;5075138;28;20016;-77
2021/10/15 09:49:48;;;;;;;9.13;0.98;;;12.60;99.90;;;;;;5079427;28;20044;-76
2021/10/15 09:52:59;;;;;;;12.55;1.67;;;12.60;99.90;;;;;;5088256;28;20107;-77
2021/10/15 09:55:31;;;;;;;13.80;2.35;;;12.60;99.90;;;;;;5024874;28;20483;-75
2021/10/15 09:58:10;;;;;;;11.88;2.35;;;12.70;99.90;;;;;;5084703;28;20484;-77
2021/10/15 10:00:36;;;;;;;8.27;1.40;;;12.80;99.90;;;;;;5074947;28;20016;-76
2021/10/15 10:03:02;;;;;;;8.52;1.38;;;12.80;99.90;;;;;;5075218;28;20036;-77
2021/10/15 10:05:28;;;;;;;9.65;1.45;;;12.90;99.90;;;;;;5074162;28;20038;-78
2021/10/15 10:07:55;;;;;;;9.75;1.48;;;13.00;99.90;;;;;;5068367;28;20124;-77
2021/10/15 10:10:23;;;;;;;12.13;1.83;;;13.10;99.90;;;;;;5064381;28;20029;-77
2021/10/15 10:12:49;;;;;;;5.82;1.52;;;13.20;99.90;;;;;;5062386;28;20041;-76
2021/10/15 10:15:19;;;;;;;11.20;1.52;;;13.30;99.90;;;;;;5059738;28;20111;-78
2021/10/15 10:18:15;;;;;;;5.93;1.55;;;13.30;99.90;;;;;;5061043;28;20036;-76
2021/10/15 10:21:09;;;;;;;5.90;1.67;;;13.30;99.90;;;;;;5062214;28;20037;-77
2021/10/15 10:23:44;;;;;;;9.57;1.67;;;13.30;99.90;;;;;;5060680;28;20477;-78
2021/10/15 10:26:13;;;;;;;9.23;1.15;;;13.40;99.90;;;;;;5061133;28;20457;-77
2021/10/15 10:28:39;;;;;;;6.30;1.23;;;13.50;99.90;;;;;;5066269;28;20029;-80
2021/10/15 10:31:18;;;;;;;6.38;1.23;;;13.50;99.90;;;;;;5069964;28;20028;-78
2021/10/15 10:33:55;;;;;;;4.28;1.40;;;13.50;99.90;;;;;;5088541;28;20537;-77
2021/10/15 10:36:21;;;;;;;10.02;1.40;;;13.60;99.90;;;;;;5088929;28;20040;-77
2021/10/15 10:38:47;;;;;;;16.30;3.03;;;13.70;99.90;;;;;;5066348;28;20427;-78
2021/10/15 10:41:14;;;;;;;10.00;0.95;;;13.70;99.90;;;;;;5062559;28;20032;-77
2021/10/15 10:43:42;;;;;;;5.68;1.20;;;13.80;99.90;;;;;;5057488;28;20500;-76
2021/10/15 10:46:08;;;;;;;7.10;1.23;;;14.00;99.90;;;;;;5070791;28;20078;-76
2021/10/15 10:48:49;;;;;;;8.85;1.30;;;14.00;99.90;;;;;;5079447;28;20024;-78
2021/10/15 10:51:18;;;;;;;4.80;1.15;;;14.10;99.90;;;;;;5074327;28;20480;-78
2021/10/15 10:54:00;;;;;;;5.00;1.00;;;14.20;99.90;;;;;;5084846;28;20312;-76
2021/10/15 10:56:42;;;;;;;12.20;1.40;;;14.40;99.90;;;;;;5092001;28;20030;-76
2021/10/15 10:59:25;;;;;;;11.38;1.45;;;14.50;99.90;;;;;;5067830;28;20381;-77
2021/10/15 11:01:55;;;;;;;10.00;1.85;;;14.50;99.90;;;;;;5067805;28;20020;-78
2021/10/15 11:04:47;;;;;;;6.85;1.17;;;14.40;99.90;;;;;;5079179;28;20025;-77
2021/10/15 11:07:16;;;;;;;12.02;2.35;;;14.30;99.90;;;;;;5077027;28;20037;-79
2021/10/15 11:09:49;;;;;;;9.52;1.60;;;14.20;99.90;;;;;;5086354;28;20028;-79
2021/10/15 11:12:42;;;;;;;5.35;0.90;;;14.10;99.90;;;;;;5077354;28;20016;-79
2021/10/15 11:15:10;;;;;;;7.68;1.77;;;14.20;99.90;;;;;;5083999;28;20033;-77
2021/10/15 11:17:38;;;;;;;7.25;1.10;;;14.30;99.90;;;;;;5085849;28;20027;-78
2021/10/15 11:20:12;;;;;;;6.85;1.15;;;14.50;99.90;;;;;;5082216;28;20395;-78
2021/10/15 11:22:46;;;;;;;10.18;1.77;;;14.60;99.90;;;;;;5083357;28;21003;-78
2021/10/15 11:25:12;;;;;;;4.78;1.10;;;14.60;99.90;;;;;;5088374;28;20079;-78
2021/10/15 11:27:38;;;;;;;10.80;1.58;;;14.40;99.90;;;;;;5080148;28;20533;-79
2021/10/15 11:30:08;;;;;;;8.45;1.20;;;14.30;99.90;;;;;;5086031;28;20030;-78
2021/10/15 11:32:35;;;;;;;6.18;1.50;;;14.10;99.90;;;;;;5083675;28;20371;-78
2021/10/15 11:35:16;;;;;;;17.08;2.17;;;14.00;99.90;;;;;;5083614;28;20028;-79
2021/10/15 11:37:56;;;;;;;10.52;1.33;;;13.90;99.90;;;;;;5085214;28;20044;-79
2021/10/15 11:40:37;;;;;;;8.98;1.40;;;13.80;99.90;;;;;;5088668;28;20220;-78
2021/10/15 11:43:15;;;;;;;7.03;1.40;;;13.90;99.90;;;;;;5112835;27;20109;-78
2021/10/15 11:45:55;;;;;;;11.48;1.50;;;14.00;99.90;;;;;;5109837;28;20023;-78
2021/10/15 11:48:29;;;;;;;9.03;1.40;;;14.10;99.90;;;;;;5111412;28;20369;-79
2021/10/15 11:51:00;;;;;;;8.63;1.85;;;14.30;99.90;;;;;;5110813;28;20137;-78
2021/10/15 11:53:32;;;;;;;7.68;1.27;;;14.40;99.90;;;;;;5108333;28;20085;-80
2021/10/15 11:55:58;;;;;;;10.00;1.20;;;14.60;99.90;;;;;;5108303;28;20047;-78
2021/10/15 11:58:37;;;;;;;6.68;1.15;;;14.70;99.90;;;;;;5107767;28;20028;-77
2021/10/15 12:01:19;;;;;;;6.03;1.58;;;14.90;99.90;;;;;;5105260;28;20036;-79
2021/10/15 12:03:52;;;;;;;7.72;1.55;;;15.10;99.90;;;;;;5106555;28;20032;-78
2021/10/15 12:06:29;;;;;;;6.53;1.17;;;15.20;99.90;;;;;;5107065;28;20012;-79
2021/10/15 12:09:05;;;;;;;2.75;1.15;;;15.30;99.90;;;;;;5107731;28;20024;-78
2021/10/15 12:11:42;;;;;;;9.50;1.73;;;15.20;99.90;;;;;;5108107;28;20027;-78
2021/10/15 12:14:29;;;;;;;8.35;1.45;;;15.00;99.90;;;;;;5107299;28;20085;-80
2021/10/15 12:17:12;;;;;;;8.93;1.65;;;14.80;99.90;;;;;;5107092;28;20054;-79
2021/10/15 12:19:47;;;;;;;6.15;1.40;;;14.60;99.90;;;;;;5108659;28;20020;-80
2021/10/15 12:22:17;;;;;;;9.90;2.03;;;14.40;99.90;;;;;;5109668;28;20039;-79
2021/10/15 12:24:47;;;;;;;6.72;1.40;;;14.30;99.90;;;;;;5106737;28;20031;-79
2021/10/15 12:27:18;;;;;;;;;;;14.20;99.90;;;;;;5109608;28;20047;-76
2021/10/15 12:29:48;;;;;;;;;;;14.30;99.90;;;;;;5096444;28;19904;-77
2021/10/15 12:32:41;;;;;;;15.40;2.17;;;14.40;99.90;;;;;;5108591;28;19908;-76
2021/10/15 12:35:22;;;;;;;16.38;2.60;;;14.50;99.90;;;;;;5096518;28;20035;-80
2021/10/15 12:37:51;;;;;;;14.32;2.17;;;14.50;99.90;;;;;;5109661;28;20024;-79
2021/10/15 12:40:31;;;;;;;12.85;1.80;;;14.50;99.90;;;;;;5109188;28;20023;-77
2021/10/15 12:42:57;;;;;;;;;;;14.50;99.90;;;;;;5090340;28;20047;-77
2021/10/15 12:45:25;;;;;;;12.63;2.60;;;14.40;99.90;;;;;;5086885;28;19999;-77
2021/10/15 12:47:59;;;;;;;16.77;2.95;;;14.40;99.90;;;;;;5088248;28;20499;-79
2021/10/15 12:50:27;;;;;;;19.42;3.33;;;14.20;99.90;;;;;;5089884;28;20016;-80
2021/10/15 12:52:53;;;;;;;21.95;2.28;;;14.10;99.90;;;;;;5085632;28;20032;-74